KSMX/SMX METAR and TAF weather

Enter ICAO airport designator
Station Type Date Time Source
KSMX METAR 2022/11/30 09:51 UTC NOAA

KSMX 300951Z AUTO 00000KT 10SM CLR 04/03 A3001 RMK AO2 SLP165 T00440033 $


Station Type Date Time Source
KSMX Decoded METAR 2022/11/30 09:51 UTC NOAA

SANTA MARIA PUBLIC AIRPORT, CA, United States (KSMX) 34-54N 120-28W 74M
Nov 30, 2022 - 04:51 AM EST / 2022.11.30 0951 UTC
Wind: Calm:0
Visibility: 10 mile(s):0
Sky conditions: clear
Temperature: 39.9 F (4.4 C)
Dew Point: 37.9 F (3.3 C)
Relative Humidity: 92%
Pressure (altimeter): 30.01 in. Hg (1016 hPa)
ob: KSMX 300951Z AUTO 00000KT 10SM CLR 04/03 A3001 RMK AO2 SLP165 T00440033
cycle: 10

Station Type Date Time Source
KSMX TAF 2022/11/30 06:27 UTC NOAA

TAF KSMX 300524Z 3006/0106 VRB03KT P6SM SKC
FM301400 VRB03KT P6SM BKN040
FM302000 23010KT P6SM OVC040
FM010200 VRB03KT P6SM BKN025

Example: see airport list